Time;durP1;ratioP1;P1;durP2;ratioP2;P2;SDS_P1;SDS_P2;PMS_P1;PMS_P2;Temp;Humidity;BMP_temperature;BMP_pressure;BME280_temperature;BME280_humidity;BME280_pressure;Samples;Min_cycle;Max_cycle;Signal;HPM_P1;HPM_P2
2023/07/24 00:01:31;;;;;;;5.37;1.53;;;;;;;19.53;90.41;100093.31;5072137;28;21033;-71
2023/07/24 00:03:58;;;;;;;5.63;1.53;;;;;;;19.54;90.17;100094.91;5073451;28;20484;-68
2023/07/24 00:06:25;;;;;;;9.20;1.33;;;;;;;19.53;89.07;100087.81;5071167;28;20568;-70
2023/07/24 00:08:52;;;;;;;5.83;1.23;;;;;;;19.57;89.38;100085.13;5056318;28;20533;-71
2023/07/24 00:11:20;;;;;;;5.87;1.30;;;;;;;19.59;89.14;100088.28;5073873;28;20533;-72
2023/07/24 00:13:46;;;;;;;6.50;1.50;;;;;;;19.58;89.00;100083.97;5073200;28;20489;-71
2023/07/24 00:16:13;;;;;;;5.63;1.43;;;;;;;19.58;88.77;100083.97;5073059;28;20580;-71
2023/07/24 00:18:40;;;;;;;4.87;1.20;;;;;;;19.63;88.23;100084.44;5073804;28;20448;-72
2023/07/24 00:21:07;;;;;;;8.00;1.70;;;;;;;19.68;86.85;100074.28;5053517;28;20494;-71
2023/07/24 00:23:34;;;;;;;6.00;1.27;;;;;;;19.74;86.87;100084.56;5053841;28;20956;-71
2023/07/24 00:26:00;;;;;;;5.07;1.20;;;;;;;19.78;87.24;100079.88;5069634;28;21051;-71
2023/07/24 00:28:28;;;;;;;4.83;1.30;;;;;;;19.77;86.95;100081.06;5073555;28;20886;-71
2023/07/24 00:30:55;;;;;;;5.23;0.93;;;;;;;19.83;85.12;100076.81;5071932;28;20485;-71
2023/07/24 00:33:22;;;;;;;5.83;1.20;;;;;;;19.89;85.13;100078.06;5073389;28;20571;-71
2023/07/24 00:35:49;;;;;;;5.43;1.20;;;;;;;19.97;84.00;100076.19;5071272;28;20540;-71
2023/07/24 00:38:15;;;;;;;5.57;1.43;;;;;;;20.01;83.32;100067.94;5073074;28;20489;-71
2023/07/24 00:40:42;;;;;;;5.40;1.13;;;;;;;20.10;83.18;100071.22;5073435;28;20528;-71
2023/07/24 00:43:09;;;;;;;5.30;0.97;;;;;;;20.14;84.14;100069.25;5073570;28;20520;-71
2023/07/24 00:45:37;;;;;;;5.63;1.47;;;;;;;20.15;82.33;100057.91;5071941;28;20815;-71
2023/07/24 00:48:04;;;;;;;7.87;1.80;;;;;;;20.16;82.10;100053.97;5073046;28;20445;-71
2023/07/24 00:50:31;;;;;;;4.60;0.93;;;;;;;20.17;83.48;100055.53;5072225;28;20496;-71
2023/07/24 00:52:59;;;;;;;4.90;1.20;;;;;;;20.15;85.25;100054.38;5069277;28;20524;-71
2023/07/24 00:55:26;;;;;;;4.90;1.20;;;;;;;20.11;85.88;100056.28;5071128;28;20513;-71
2023/07/24 00:57:53;;;;;;;4.60;0.73;;;;;;;20.04;86.23;100050.72;5072876;28;20464;-71
2023/07/24 01:00:20;;;;;;;6.30;1.17;;;;;;;19.97;86.52;100040.44;5071388;28;20457;-71
2023/07/24 01:02:49;;;;;;;4.30;0.80;;;;;;;19.93;87.20;100034.13;5068306;28;20461;-71
2023/07/24 01:05:15;;;;;;;5.40;1.10;;;;;;;19.88;88.16;100029.75;5066559;28;20481;-71
2023/07/24 01:07:42;;;;;;;5.43;1.27;;;;;;;19.87;87.65;100030.91;5072548;28;20453;-71
2023/07/24 01:10:09;;;;;;;5.53;1.30;;;;;;;19.85;88.11;100036.00;5073260;28;20540;-71
2023/07/24 01:12:40;;;;;;;5.20;1.17;;;;;;;19.83;88.17;100024.59;5070314;28;20485;-71
2023/07/24 01:15:11;;;;;;;5.37;1.47;;;;;;;19.79;88.85;100028.44;5064178;28;20469;-71
2023/07/24 01:17:43;;;;;;;5.30;1.23;;;;;;;19.75;89.66;100020.19;5071160;28;20980;-71
2023/07/24 01:20:14;;;;;;;5.00;1.30;;;;;;;19.73;90.00;100027.22;5073608;28;20514;-71
2023/07/24 01:22:49;;;;;;;4.60;0.93;;;;;;;19.68;90.10;100019.31;5075625;28;20457;-71
2023/07/24 01:25:24;;;;;;;5.13;1.23;;;;;;;19.68;89.74;100020.09;5058275;28;20924;-71
2023/07/24 01:27:51;;;;;;;4.77;1.00;;;;;;;19.67;89.79;100021.28;5075052;28;20890;-71
2023/07/24 01:30:20;;;;;;;5.90;1.47;;;;;;;19.64;89.45;100022.03;5074815;28;20465;-71
2023/07/24 01:32:47;;;;;;;5.37;1.43;;;;;;;19.65;90.55;100018.09;5074919;28;20575;-71
2023/07/24 01:35:13;;;;;;;6.37;1.50;;;;;;;19.63;90.14;100014.97;5075905;28;20877;-71
2023/07/24 01:37:41;;;;;;;5.17;1.27;;;;;;;19.67;89.82;100015.00;5075356;28;20974;-71
2023/07/24 01:40:09;;;;;;;5.27;1.23;;;;;;;19.67;89.91;100009.50;5074095;28;20454;-72
2023/07/24 01:42:36;;;;;;;5.30;1.30;;;;;;;19.68;89.77;100006.38;5074228;28;20463;-72
2023/07/24 01:45:05;;;;;;;5.67;1.30;;;;;;;19.64;90.26;100006.31;5074530;28;20999;-68
2023/07/24 01:47:33;;;;;;;5.57;1.43;;;;;;;19.65;89.32;100013.41;5074852;28;20908;-71
2023/07/24 01:50:00;;;;;;;6.67;1.83;;;;;;;19.65;88.68;100007.13;5067102;28;20515;-73
2023/07/24 01:52:27;;;;;;;8.27;1.40;;;;;;;19.69;88.84;100012.66;5070720;28;20514;-72
2023/07/24 01:54:54;;;;;;;5.43;1.40;;;;;;;19.71;88.14;100007.59;5067562;28;20564;-72
2023/07/24 01:57:20;;;;;;;5.67;1.17;;;;;;;19.78;87.99;100011.19;5073587;28;20892;-72
2023/07/24 01:59:48;;;;;;;5.27;1.20;;;;;;;19.73;87.56;100008.78;5070294;28;21030;-73
2023/07/24 02:02:16;;;;;;;4.80;1.00;;;;;;;19.73;86.10;99997.78;5071264;28;20461;-72
2023/07/24 02:04:44;;;;;;;4.90;0.97;;;;;;;19.73;84.37;100002.50;5075390;28;20499;-72
2023/07/24 02:07:10;;;;;;;5.43;1.63;;;;;;;19.80;83.95;99994.31;5070241;22;20552;-68
2023/07/24 02:09:37;;;;;;;6.40;1.27;;;;;;;19.88;84.14;99998.72;5055359;28;20924;-68
2023/07/24 02:12:04;;;;;;;6.23;1.13;;;;;;;19.95;83.77;100004.28;5053006;28;20462;-68
2023/07/24 02:14:31;;;;;;;4.70;1.07;;;;;;;20.00;83.27;99994.88;5051462;28;20577;-67
2023/07/24 02:16:57;;;;;;;4.87;1.20;;;;;;;20.06;83.38;99994.19;5046900;28;20795;-68
2023/07/24 02:19:25;;;;;;;4.80;0.90;;;;;;;20.13;83.06;99987.94;5054657;28;20493;-68
2023/07/24 02:21:52;;;;;;;5.20;1.20;;;;;;;20.12;83.77;99987.16;5054087;28;20836;-68
2023/07/24 02:24:19;;;;;;;4.77;0.80;;;;;;;20.15;84.80;99989.16;5051957;28;20492;-68
2023/07/24 02:26:45;;;;;;;4.80;1.10;;;;;;;20.11;86.09;99977.31;5053493;28;20545;-68
2023/07/24 02:29:12;;;;;;;4.60;0.83;;;;;;;20.09;84.82;99981.63;5052990;28;20490;-68
2023/07/24 02:31:39;;;;;;;7.87;1.23;;;;;;;20.14;83.73;99984.81;5052101;28;20549;-68
2023/07/24 02:34:06;;;;;;;6.33;1.00;;;;;;;20.15;84.60;99985.59;5054267;28;20488;-68
2023/07/24 02:36:34;;;;;;;4.77;1.13;;;;;;;20.14;85.24;99973.81;5048652;28;20513;-68
2023/07/24 02:39:00;;;;;;;5.50;1.10;;;;;;;20.16;84.27;99981.69;5044677;28;20490;-68
2023/07/24 02:41:27;;;;;;;5.33;0.80;;;;;;;20.17;85.43;99981.28;5038903;28;20549;-68
2023/07/24 02:43:53;;;;;;;8.10;1.47;;;;;;;20.21;83.29;99994.28;5050658;28;20469;-68
2023/07/24 02:46:20;;;;;;;5.40;1.30;;;;;;;20.26;83.32;100002.19;5051221;28;20517;-68
2023/07/24 02:48:46;;;;;;;5.50;1.13;;;;;;;20.28;84.73;100005.38;5052687;28;20461;-68
2023/07/24 02:51:13;;;;;;;4.77;0.90;;;;;;;20.25;85.28;100011.63;5045409;28;20949;-68
2023/07/24 02:53:41;;;;;;;5.07;1.30;;;;;;;20.25;86.30;100012.41;5052825;28;20496;-68
2023/07/24 02:56:08;;;;;;;6.20;1.20;;;;;;;20.22;85.94;100015.13;5048194;28;20487;-68
2023/07/24 02:58:34;;;;;;;5.50;1.37;;;;;;;20.23;85.21;100016.69;5044350;28;21026;-68
2023/07/24 03:01:06;;;;;;;4.60;0.90;;;;;;;20.25;83.47;100015.16;5049574;28;20458;-68
2023/07/24 03:03:33;;;;;;;4.80;0.97;;;;;;;20.35;82.64;100008.16;5053118;28;20458;-68
2023/07/24 03:05:59;;;;;;;4.70;0.90;;;;;;;20.36;82.30;100016.03;5047875;28;20577;-68
2023/07/24 03:08:26;;;;;;;4.80;1.10;;;;;;;20.40;81.95;100016.84;5051723;28;20835;-68
2023/07/24 03:10:54;;;;;;;5.37;1.20;;;;;;;20.44;81.95;100014.13;5052395;28;20542;-70
2023/07/24 03:13:21;;;;;;;5.10;1.20;;;;;;;20.47;82.88;100020.81;5039989;28;20513;-70
2023/07/24 03:15:53;;;;;;;4.53;0.93;;;;;;;20.47;82.69;100018.88;5043834;28;20551;-70
2023/07/24 03:18:20;;;;;;;4.50;0.80;;;;;;;20.50;82.89;100022.84;5041511;28;20457;-70
2023/07/24 03:20:46;;;;;;;4.60;0.90;;;;;;;20.51;82.55;100024.44;5047289;28;20542;-70
2023/07/24 03:23:13;;;;;;;5.13;1.10;;;;;;;20.52;83.51;100017.75;5045698;28;20900;-69
2023/07/24 03:25:39;;;;;;;4.77;0.90;;;;;;;20.52;82.54;100020.50;5050081;28;20549;-70
2023/07/24 03:28:07;;;;;;;4.50;0.90;;;;;;;20.57;82.16;100012.66;5044712;28;20544;-69
2023/07/24 03:30:34;;;;;;;5.03;0.93;;;;;;;20.55;83.30;100017.78;5051487;28;20468;-70
2023/07/24 03:33:01;;;;;;;5.90;1.30;;;;;;;20.54;84.38;100020.88;5052667;28;21068;-70
2023/07/24 03:35:28;;;;;;;5.13;1.20;;;;;;;20.38;85.62;100013.69;5039913;28;20483;-70
2023/07/24 03:37:55;;;;;;;6.07;1.47;;;;;;;20.25;86.95;100017.13;5044304;28;20534;-70
2023/07/24 03:40:21;;;;;;;4.80;1.07;;;;;;;20.12;87.91;100016.63;5050352;28;20466;-70
2023/07/24 03:42:48;;;;;;;4.57;0.97;;;;;;;20.04;90.25;100018.50;5053250;28;20481;-70
2023/07/24 03:45:16;;;;;;;4.40;0.70;;;;;;;20.03;90.16;100027.13;5050221;28;20569;-70
2023/07/24 03:47:42;;;;;;;4.40;0.80;;;;;;;20.00;92.48;100016.88;5040273;28;20502;-68
2023/07/24 03:50:10;;;;;;;4.33;0.63;;;;;;;19.95;91.94;100019.97;5048303;28;20486;-66
2023/07/24 03:52:36;;;;;;;4.90;0.97;;;;;;;20.05;91.90;100027.53;5048251;28;20486;-66
2023/07/24 03:55:03;;;;;;;4.80;0.87;;;;;;;20.03;92.01;100024.38;5041150;28;20487;-68
2023/07/24 03:57:30;;;;;;;5.30;1.00;;;;;;;20.01;93.55;100018.47;5046015;28;20460;-68
2023/07/24 03:59:56;;;;;;;4.70;0.90;;;;;;;19.99;94.02;100010.59;5050956;28;20486;-68
2023/07/24 04:02:24;;;;;;;4.40;0.80;;;;;;;19.99;95.17;100018.84;5052132;28;20541;-68
2023/07/24 04:04:51;;;;;;;4.90;1.03;;;;;;;20.01;95.46;100018.47;5051225;28;20510;-68
2023/07/24 04:07:18;;;;;;;4.50;0.80;;;;;;;19.97;95.92;100012.94;5047349;28;20476;-68
2023/07/24 04:09:44;;;;;;;9.23;1.03;;;;;;;19.95;97.52;100019.97;5052257;28;21162;-68
2023/07/24 04:12:11;;;;;;;4.30;0.70;;;;;;;19.94;97.60;100021.94;5051981;28;20458;-68
2023/07/24 04:14:37;;;;;;;4.83;0.83;;;;;;;19.94;97.62;100026.66;5049048;28;20536;-68
2023/07/24 04:17:04;;;;;;;5.10;1.07;;;;;;;19.94;97.59;100018.41;5051206;28;20462;-68
2023/07/24 04:19:32;;;;;;;4.23;0.67;;;;;;;19.97;97.64;100017.66;5049744;28;20544;-68
2023/07/24 04:21:59;;;;;;;4.87;0.87;;;;;;;20.00;98.12;100014.94;5043491;28;20472;-68
2023/07/24 04:24:25;;;;;;;4.70;0.80;;;;;;;20.04;97.68;100018.50;5050454;28;20460;-68
2023/07/24 04:26:52;;;;;;;4.90;0.80;;;;;;;20.12;97.25;100024.88;5051953;28;20538;-69
2023/07/24 04:29:23;;;;;;;4.30;0.80;;;;;;;20.17;96.62;100030.00;5052356;28;20485;-69
2023/07/24 04:31:50;;;;;;;4.60;0.80;;;;;;;20.22;94.92;100034.38;5040572;28;20528;-68
2023/07/24 04:34:16;;;;;;;4.63;0.90;;;;;;;20.20;95.05;100029.25;5040548;28;21002;-68
2023/07/24 04:36:44;;;;;;;4.90;1.00;;;;;;;20.20;94.59;100026.50;5048894;28;20478;-68
2023/07/24 04:39:11;;;;;;;4.27;0.60;;;;;;;20.20;95.13;100023.75;5050414;28;20476;-68
2023/07/24 04:41:37;;;;;;;4.60;0.77;;;;;;;20.24;95.25;100021.84;5044498;28;20458;-68
2023/07/24 04:44:04;;;;;;;4.43;0.77;;;;;;;20.28;95.01;100017.16;5046563;28;20895;-68
2023/07/24 04:46:31;;;;;;;4.50;0.87;;;;;;;20.28;94.60;100014.41;5050517;28;20516;-68
2023/07/24 04:48:57;;;;;;;4.80;1.00;;;;;;;20.36;94.81;100007.78;5051526;28;20555;-68
2023/07/24 04:51:24;;;;;;;4.77;0.70;;;;;;;20.40;95.53;100005.03;5052987;28;20489;-68
2023/07/24 04:53:52;;;;;;;4.47;0.70;;;;;;;20.43;97.25;100009.78;5052053;28;21027;-69
2023/07/24 04:56:19;;;;;;;7.00;1.03;;;;;;;20.45;98.29;100006.66;5049883;28;20560;-68
2023/07/24 04:58:45;;;;;;;4.63;0.93;;;;;;;20.48;99.39;100014.19;5055328;28;20501;-68
2023/07/24 05:01:12;;;;;;;5.20;0.90;;;;;;;20.48;99.27;100014.19;5045867;28;20577;-68
2023/07/24 05:03:38;;;;;;;4.43;0.80;;;;;;;20.47;97.44;100018.06;5055587;28;20537;-68
2023/07/24 05:06:05;;;;;;;4.43;0.80;;;;;;;20.47;97.18;100007.06;5053494;28;20585;-68
2023/07/24 05:08:32;;;;;;;5.07;0.73;;;;;;;20.52;95.15;99998.47;5055375;28;20490;-68
2023/07/24 05:11:00;;;;;;;5.30;0.80;;;;;;;20.61;95.65;100009.94;5055886;28;20490;-68
2023/07/24 05:13:26;;;;;;;4.30;0.60;;;;;;;20.70;95.11;99993.09;5047749;28;20920;-68
2023/07/24 05:15:53;;;;;;;4.80;0.90;;;;;;;20.81;91.70;99993.97;5038866;28;20485;-68
2023/07/24 05:18:20;;;;;;;5.30;1.00;;;;;;;20.95;92.41;99988.53;5050442;28;20806;-68
2023/07/24 05:20:48;;;;;;;5.10;0.97;;;;;;;21.10;91.60;99983.84;5055630;28;20834;-68
2023/07/24 05:23:15;;;;;;;4.80;0.70;;;;;;;21.22;90.58;99982.75;5053780;28;20458;-68
2023/07/24 05:25:41;;;;;;;4.70;0.70;;;;;;;21.29;89.15;99980.78;5053775;28;20561;-68
2023/07/24 05:28:10;;;;;;;4.43;0.77;;;;;;;21.36;89.18;99983.59;5049273;28;20537;-65
2023/07/24 05:30:37;;;;;;;4.50;0.70;;;;;;;21.44;88.91;99978.13;5054078;28;20545;-68
2023/07/24 05:33:03;;;;;;;4.50;0.63;;;;;;;21.46;88.20;99979.28;5038539;28;20465;-68
2023/07/24 05:35:30;;;;;;;4.80;0.80;;;;;;;21.46;88.02;99973.00;5055564;28;20485;-68
2023/07/24 05:37:56;;;;;;;4.87;1.00;;;;;;;21.40;90.04;99976.13;5050706;28;20489;-68
2023/07/24 05:40:23;;;;;;;4.60;0.90;;;;;;;21.36;89.26;99969.81;5049327;28;20914;-67
2023/07/24 05:42:50;;;;;;;4.77;0.83;;;;;;;21.41;88.21;99977.69;5054020;28;20542;-67
2023/07/24 05:45:18;;;;;;;4.83;1.03;;;;;;;21.45;87.86;99976.94;5039396;28;20565;-68
2023/07/24 05:47:44;;;;;;;4.80;1.10;;;;;;;21.47;88.15;99974.56;5045171;28;20458;-67
2023/07/24 05:50:13;;;;;;;4.90;0.93;;;;;;;21.55;87.92;99962.38;5051143;28;20817;-68
2023/07/24 05:52:39;;;;;;;4.70;0.80;;;;;;;21.68;87.13;99966.34;5054911;28;20447;-68
2023/07/24 05:55:07;;;;;;;4.20;0.63;;;;;;;21.76;86.45;99970.69;5054219;28;20486;-68
2023/07/24 05:57:34;;;;;;;4.30;0.60;;;;;;;21.76;86.79;99959.66;5053848;28;20497;-68
2023/07/24 06:00:00;;;;;;;4.57;0.80;;;;;;;21.78;87.35;99959.25;5052682;28;20458;-69
2023/07/24 06:02:28;;;;;;;4.70;0.97;;;;;;;21.81;85.44;99959.28;5048971;28;20466;-70
2023/07/24 06:04:55;;;;;;;4.40;0.70;;;;;;;21.85;83.87;99957.31;5053812;28;20478;-66
2023/07/24 06:07:21;;;;;;;4.43;0.70;;;;;;;21.81;85.26;99956.50;5054835;28;20489;-66
2023/07/24 06:09:48;;;;;;;4.70;0.97;;;;;;;21.82;84.97;99951.78;5050342;28;20469;-65
2023/07/24 06:12:14;;;;;;;5.10;1.07;;;;;;;21.87;85.23;99954.16;5044310;28;20473;-67
2023/07/24 06:14:41;;;;;;;4.97;0.97;;;;;;;21.89;84.50;99947.06;5048312;28;20486;-66
2023/07/24 06:17:08;;;;;;;4.97;1.00;;;;;;;21.86;85.17;99945.09;5045211;28;20941;-67
2023/07/24 06:19:36;;;;;;;4.40;0.73;;;;;;;21.88;84.78;99951.00;5043850;28;20466;-67
2023/07/24 06:22:03;;;;;;;6.20;1.50;;;;;;;21.94;84.52;99948.63;5049219;28;20485;-67
2023/07/24 06:24:30;;;;;;;5.03;0.93;;;;;;;21.91;83.20;99941.97;5049449;28;20885;-67
2023/07/24 06:26:56;;;;;;;5.03;0.87;;;;;;;21.95;83.31;99938.41;5043241;28;20471;-66
2023/07/24 06:29:23;;;;;;;4.90;1.13;;;;;;;22.03;82.57;99939.97;5048810;28;20459;-66
2023/07/24 06:31:49;;;;;;;5.20;1.10;;;;;;;22.10;81.17;99938.00;5051641;28;20968;-67
2023/07/24 06:34:16;;;;;;;4.70;0.80;;;;;;;22.11;81.87;99933.28;5042893;28;20906;-67
2023/07/24 06:36:44;;;;;;;4.40;0.83;;;;;;;22.25;81.14;99926.97;5050101;28;20917;-67
2023/07/24 06:39:11;;;;;;;4.40;0.80;;;;;;;22.29;80.65;99936.03;5039715;28;20462;-68
2023/07/24 06:41:37;;;;;;;7.50;0.90;;;;;;;22.36;81.14;99934.06;5039450;28;20882;-68
2023/07/24 06:44:04;;;;;;;5.83;1.23;;;;;;;22.45;80.30;99919.06;5046126;28;20866;-68
2023/07/24 06:46:31;;;;;;;4.93;1.03;;;;;;;22.52;81.44;99919.81;5044941;28;20481;-68
2023/07/24 06:48:57;;;;;;;4.83;1.03;;;;;;;22.55;80.63;99923.78;5043620;28;20529;-68
2023/07/24 06:51:24;;;;;;;4.90;0.90;;;;;;;22.61;79.52;99916.66;5048067;28;20540;-68
2023/07/24 06:53:52;;;;;;;4.40;0.80;;;;;;;22.72;77.54;99917.41;5054591;28;20538;-68
2023/07/24 06:56:19;;;;;;;4.60;0.80;;;;;;;22.75;77.78;99918.56;5053259;28;21029;-68
2023/07/24 06:58:45;;;;;;;5.03;1.13;;;;;;;22.75;78.88;99911.06;5052404;28;21005;-68
2023/07/24 07:01:12;;;;;;;4.60;1.00;;;;;;;22.81;77.26;99906.72;5053289;28;20981;-67
2023/07/24 07:03:38;;;;;;;5.47;1.37;;;;;;;22.85;75.51;99903.97;5054725;28;20533;-70
2023/07/24 07:06:06;;;;;;;4.47;0.87;;;;;;;22.91;74.13;99897.63;5048670;28;20981;-69
2023/07/24 07:08:33;;;;;;;4.50;1.07;;;;;;;23.01;73.90;99892.44;5043821;28;20462;-69
2023/07/24 07:11:02;;;;;;;4.70;1.10;;;;;;;23.09;72.74;99905.81;5054003;28;20446;-69
2023/07/24 07:13:29;;;;;;;4.23;0.90;;;;;;;23.07;72.78;99899.94;5052260;28;20454;-70
2023/07/24 07:15:55;;;;;;;5.63;0.97;;;;;;;23.11;72.76;99899.91;5052219;28;20879;-71
2023/07/24 07:18:22;;;;;;;6.87;1.23;;;;;;;23.12;72.25;99888.44;5035336;28;20542;-70
2023/07/24 07:20:52;;;;;;;4.57;1.10;;;;;;;23.17;73.27;99887.25;5037551;28;20474;-70
2023/07/24 07:23:19;;;;;;;4.33;0.90;;;;;;;23.28;72.90;99885.19;5033789;28;20534;-70
2023/07/24 07:25:45;;;;;;;4.47;0.87;;;;;;;23.42;71.28;99887.88;5043516;28;20508;-70
2023/07/24 07:28:14;;;;;;;4.93;1.00;;;;;;;23.44;70.95;99895.75;5052137;28;20767;-70
2023/07/24 07:30:40;;;;;;;4.57;0.80;;;;;;;23.55;68.69;99882.66;5043849;28;20538;-70
2023/07/24 07:33:07;;;;;;;4.50;0.90;;;;;;;23.67;68.96;99897.97;5052401;28;20508;-68
2023/07/24 07:35:34;;;;;;;4.50;0.80;;;;;;;23.76;70.02;99897.50;5033664;28;20490;-68
2023/07/24 07:38:01;;;;;;;4.47;0.87;;;;;;;23.72;70.31;99908.59;5042518;28;20500;-71
2023/07/24 07:40:28;;;;;;;4.40;0.80;;;;;;;23.75;68.38;99902.25;5051410;28;20493;-70
2023/07/24 07:42:55;;;;;;;4.30;0.80;;;;;;;23.79;67.78;99903.03;5048583;28;20475;-70
2023/07/24 07:45:24;;;;;;;4.30;0.73;;;;;;;23.87;67.93;99909.28;5046869;28;20474;-69
2023/07/24 07:47:53;;;;;;;4.30;0.60;;;;;;;23.93;68.58;99913.19;5053790;28;20478;-69
2023/07/24 07:50:19;;;;;;;4.67;0.93;;;;;;;23.98;68.00;99917.50;5051965;28;20926;-70
2023/07/24 07:52:46;;;;;;;4.27;0.80;;;;;;;24.01;67.04;99913.91;5033695;28;20457;-70
2023/07/24 07:55:13;;;;;;;5.40;0.80;;;;;;;24.04;68.94;99908.34;5037847;28;20525;-69
2023/07/24 07:57:40;;;;;;;4.10;0.73;;;;;;;24.22;68.02;99913.72;5053138;28;20937;-70
2023/07/24 08:00:08;;;;;;;4.80;0.90;;;;;;;24.35;68.38;99905.69;5052053;28;20462;-70
2023/07/24 08:02:39;;;;;;;12.97;1.40;;;;;;;24.58;66.51;99916.16;5047255;28;20517;-70
2023/07/24 08:05:07;;;;;;;4.20;0.60;;;;;;;24.66;65.33;99912.09;5049815;22;20517;-70
2023/07/24 08:07:33;;;;;;;4.87;1.03;;;;;;;24.70;64.10;99909.25;5073329;28;20449;-68
2023/07/24 08:10:00;;;;;;;4.87;1.00;;;;;;;24.71;64.73;99900.56;5073553;28;20441;-71
2023/07/24 08:12:27;;;;;;;3.93;0.53;;;;;;;24.66;64.17;99889.94;5053451;28;20442;-73
2023/07/24 08:14:53;;;;;;;4.60;1.00;;;;;;;24.70;64.70;99896.19;5053486;28;20514;-73
2023/07/24 08:17:20;;;;;;;4.30;0.87;;;;;;;24.81;64.04;99888.56;5064674;28;20495;-72
2023/07/24 08:19:48;;;;;;;11.00;2.63;;;;;;;24.88;63.92;99885.69;5072720;28;20457;-72
2023/07/24 08:22:15;;;;;;;4.70;1.07;;;;;;;24.99;63.74;99890.31;5071803;28;20548;-73
2023/07/24 08:24:41;;;;;;;5.70;1.43;;;;;;;25.16;65.81;99889.31;5067050;28;20930;-73
2023/07/24 08:27:08;;;;;;;5.80;1.50;;;;;;;25.31;62.66;99885.13;5075242;28;20906;-73
2023/07/24 08:29:35;;;;;;;4.50;1.07;;;;;;;25.31;60.34;99887.13;5062390;28;20920;-73
2023/07/24 08:32:02;;;;;;;4.43;0.97;;;;;;;25.18;58.76;99875.81;5076563;28;20461;-71
2023/07/24 08:34:29;;;;;;;4.70;0.93;;;;;;;25.03;58.74;99872.44;5069107;28;20461;-72
2023/07/24 08:36:57;;;;;;;4.47;0.90;;;;;;;24.98;59.85;99880.44;5064147;28;20833;-71
2023/07/24 08:39:24;;;;;;;5.20;1.00;;;;;;;25.00;58.52;99867.72;5073922;28;20459;-71
2023/07/24 08:41:50;;;;;;;5.70;0.90;;;;;;;25.02;60.43;99857.00;5070425;28;20457;-71
2023/07/24 08:44:17;;;;;;;5.70;1.27;;;;;;;25.04;60.01;99849.06;5074719;28;20544;-72
2023/07/24 08:46:47;;;;;;;5.30;1.10;;;;;;;25.09;60.35;99858.91;5075296;28;20556;-71
2023/07/24 08:49:14;;;;;;;6.47;2.10;;;;;;;25.10;60.67;99852.97;5075763;28;20457;-70
2023/07/24 08:51:42;;;;;;;4.60;0.73;;;;;;;25.11;62.25;99850.97;5075263;28;20452;-70
2023/07/24 08:54:11;;;;;;;5.13;1.10;;;;;;;25.07;64.43;99841.91;5076762;28;20523;-71
2023/07/24 08:56:40;;;;;;;6.97;1.13;;;;;;;25.03;63.42;99832.84;5069937;28;21059;-72
2023/07/24 08:59:06;;;;;;;4.30;0.97;;;;;;;25.10;62.57;99833.56;5073788;28;20495;-72
2023/07/24 09:01:33;;;;;;;4.87;1.07;;;;;;;25.17;61.25;99832.66;5072309;28;20457;-72
2023/07/24 09:03:59;;;;;;;4.20;0.97;;;;;;;25.20;62.70;99825.50;5072298;28;20801;-72
2023/07/24 09:06:27;;;;;;;5.00;1.20;;;;;;;25.26;61.08;99824.59;5071115;28;20598;-69
2023/07/24 09:08:55;;;;;;;7.63;1.43;;;;;;;25.32;61.36;99822.94;5074612;28;20457;-70
2023/07/24 09:11:23;;;;;;;4.50;0.80;;;;;;;25.37;62.12;99818.91;5061859;28;20499;-69
2023/07/24 09:13:50;;;;;;;5.07;1.23;;;;;;;25.49;61.68;99826.59;5073077;28;20544;-69
2023/07/24 09:16:25;;;;;;;4.60;0.80;;;;;;;25.82;59.60;99824.91;5074489;28;20489;-72
2023/07/24 09:18:53;;;;;;;5.00;1.00;;;;;;;25.87;59.10;99827.19;5060664;28;20468;-71
2023/07/24 09:21:29;;;;;;;4.60;0.77;;;;;;;25.88;58.16;99814.09;5066542;28;20990;-72
2023/07/24 09:23:56;;;;;;;4.90;1.10;;;;;;;25.98;57.66;99813.09;5074695;28;20540;-72
2023/07/24 09:26:24;;;;;;;4.90;1.13;;;;;;;26.10;58.05;99814.47;5072806;28;20519;-70
2023/07/24 09:28:55;;;;;;;4.67;1.10;;;;;;;26.16;57.38;99796.91;5073312;28;20544;-69
2023/07/24 09:31:21;;;;;;;6.83;1.40;;;;;;;26.27;59.37;99802.22;5072445;28;20457;-68
2023/07/24 09:33:48;;;;;;;4.53;0.97;;;;;;;26.40;58.75;99803.16;5076020;28;21003;-65
2023/07/24 09:36:15;;;;;;;4.57;1.00;;;;;;;26.51;56.18;99810.50;5074989;28;20558;-64
2023/07/24 09:38:42;;;;;;;8.50;1.10;;;;;;;26.53;58.24;99811.66;5076035;28;20445;-68
2023/07/24 09:41:09;;;;;;;6.70;1.20;;;;;;;26.48;59.62;99822.50;5076451;28;20473;-71
2023/07/24 09:43:37;;;;;;;5.43;1.00;;;;;;;26.46;57.11;99822.13;5076483;28;20936;-72
2023/07/24 09:46:05;;;;;;;4.53;0.90;;;;;;;26.35;56.51;99811.22;5076815;28;20455;-71
2023/07/24 09:48:33;;;;;;;4.67;1.00;;;;;;;26.35;57.58;99797.31;5076738;28;20444;-71
2023/07/24 09:51:00;;;;;;;5.63;1.03;;;;;;;26.33;57.26;99806.06;5076885;28;20441;-71
2023/07/24 09:53:34;;;;;;;4.30;0.80;;;;;;;26.39;54.43;99798.81;5076497;28;20524;-71
2023/07/24 09:56:04;;;;;;;5.90;1.13;;;;;;;26.45;54.98;99801.13;5075945;28;20493;-70
2023/07/24 09:58:34;;;;;;;4.80;0.87;;;;;;;26.49;55.00;99785.94;5075782;28;20441;-69
2023/07/24 10:01:03;;;;;;;4.50;0.90;;;;;;;26.56;56.94;99779.44;5076099;28;20921;-69
2023/07/24 10:03:31;;;;;;;4.40;0.97;;;;;;;26.62;56.76;99777.75;5075580;28;20437;-69
2023/07/24 10:05:57;;;;;;;5.07;1.07;;;;;;;26.54;56.22;99768.78;5075880;28;20556;-69
2023/07/24 10:08:26;;;;;;;5.10;1.23;;;;;;;26.67;54.80;99766.09;5075607;28;20446;-69
2023/07/24 10:10:53;;;;;;;4.60;1.00;;;;;;;26.75;55.18;99758.41;5075509;28;20445;-69
2023/07/24 10:13:22;;;;;;;4.80;1.17;;;;;;;26.77;56.67;99745.63;5075978;28;20472;-69
2023/07/24 10:15:49;;;;;;;4.33;0.97;;;;;;;26.96;53.80;99745.97;5075619;28;20481;-69
2023/07/24 10:18:18;;;;;;;4.80;1.20;;;;;;;26.95;54.27;99741.66;5075731;28;20444;-69
2023/07/24 10:20:45;;;;;;;6.23;1.03;;;;;;;26.98;53.28;99735.22;5075455;28;20445;-69
2023/07/24 10:23:17;;;;;;;5.30;1.33;;;;;;;27.07;54.51;99735.41;5057644;28;20491;-69
2023/07/24 10:25:46;;;;;;;5.00;0.93;;;;;;;27.15;52.83;99736.81;5075460;28;20453;-69
2023/07/24 10:28:16;;;;;;;9.60;1.13;;;;;;;27.24;49.29;99741.78;5075509;28;20525;-70
2023/07/24 10:30:43;;;;;;;4.40;1.00;;;;;;;27.23;52.33;99727.09;5075041;28;20448;-69
2023/07/24 10:33:11;;;;;;;4.90;1.20;;;;;;;27.38;51.38;99717.16;5075561;28;20450;-69
2023/07/24 10:35:41;;;;;;;6.40;1.20;;;;;;;27.68;51.30;99717.97;5075639;28;20495;-69
2023/07/24 10:38:08;;;;;;;6.00;1.47;;;;;;;27.95;52.37;99705.72;5075132;28;20506;-69
2023/07/24 10:40:35;;;;;;;6.20;1.23;;;;;;;28.04;50.84;99694.72;5075588;28;20437;-70
2023/07/24 10:43:05;;;;;;;5.13;1.17;;;;;;;27.97;48.28;99708.84;5075113;28;20433;-70
2023/07/24 10:45:42;;;;;;;4.50;1.00;;;;;;;27.92;49.63;99699.78;5074983;28;20545;-70
2023/07/24 10:48:11;;;;;;;5.03;1.40;;;;;;;27.87;48.16;99689.22;5074416;28;20540;-70
2023/07/24 10:50:41;;;;;;;5.80;1.87;;;;;;;28.02;47.52;99681.22;5074794;28;20450;-70
2023/07/24 10:53:09;;;;;;;4.50;1.00;;;;;;;28.24;47.98;99681.34;5074962;28;20623;-70
2023/07/24 10:55:35;;;;;;;6.00;1.27;;;;;;;28.36;46.62;99686.19;5075185;28;20491;-70
2023/07/24 10:58:02;;;;;;;5.17;1.33;;;;;;;28.41;46.03;99674.50;5074856;28;20484;-71
2023/07/24 11:00:29;;;;;;;7.17;1.80;;;;;;;28.48;46.85;99661.59;5074477;28;21051;-71
2023/07/24 11:02:56;;;;;;;5.37;0.90;;;;;;;28.59;48.03;99668.38;5074956;28;20436;-70
2023/07/24 11:05:23;;;;;;;5.47;1.40;;;;;;;28.56;46.96;99662.94;5074263;28;20563;-70
2023/07/24 11:07:51;;;;;;;4.40;0.90;;;;;;;28.40;47.77;99667.38;5074572;28;20498;-71
2023/07/24 11:10:18;;;;;;;5.30;1.50;;;;;;;28.11;46.07;99667.44;5074529;28;20473;-71
2023/07/24 11:12:45;;;;;;;4.93;1.30;;;;;;;28.00;46.92;99655.06;5074669;28;20476;-70
2023/07/24 11:15:13;;;;;;;5.33;1.43;;;;;;;27.98;45.93;99651.91;5074211;28;20884;-70
2023/07/24 11:17:41;;;;;;;8.23;1.60;;;;;;;28.13;45.40;99650.28;5074260;28;20433;-70
2023/07/24 11:20:10;;;;;;;6.23;1.70;;;;;;;28.06;46.74;99661.63;5074634;28;21006;-66
2023/07/24 11:22:39;;;;;;;6.10;1.40;;;;;;;27.93;45.68;99647.69;5074966;28;20518;-71
2023/07/24 11:25:08;;;;;;;6.20;1.77;;;;;;;27.72;47.46;99643.53;5074468;28;20560;-70
2023/07/24 11:27:40;;;;;;;5.20;1.30;;;;;;;27.64;46.84;99629.00;5074085;28;20471;-71
2023/07/24 11:30:08;;;;;;;6.10;1.43;;;;;;;27.71;46.94;99628.00;5074540;28;20425;-70